This is the latest recevied weather packets stored in our database for station/object WX6HNX-6. If no packets are shown the sender has not sent any weather packets the latest 10 day(s).
| Time | Temp. | Humidity | Pressure | Rain* | Wind** | Luminosity | Snow |
|---|---|---|---|---|---|---|---|
| 1777545632 | 13.33° C | 69% | 1014 hPa | 0 mm | - | - | - |
| 1777545034 | 13.33° C | 68% | 1014 hPa | 0 mm | - | - | - |
| 1777544432 | 13.33° C | 69% | 1014 hPa | 0 mm | - | - | - |
| 1777543232 | 13.33° C | 67% | 1014.2 hPa | 0 mm | - | - | - |
| 1777542932 | 13.33° C | 66% | 1014.1 hPa | 0 mm | - | - | - |
| 1777542632 | 13.33° C | 66% | 1014.1 hPa | 0 mm | - | - | - |
| 1777542332 | 12.78° C | 65% | 1014.1 hPa | 0 mm | - | - | - |
| 1777541132 | 12.78° C | 63% | 1014.2 hPa | 0 mm | - | - | - |
| 1777540832 | 12.78° C | 62% | 1014.2 hPa | 0 mm | - | - | - |
| 1777403615 | 21.11° C | 45% | 1019.4 hPa | 0 mm | - | - | - |
| 1777403314 | 21.11° C | 46% | 1019.5 hPa | 0 mm | - | - | - |
| 1777403016 | 21.11° C | 46% | 1019.5 hPa | 0 mm | - | - | - |
| 1777402715 | 21.11° C | 47% | 1019.7 hPa | 0 mm | - | - | - |
| 1777402415 | 20.56° C | 48% | 1019.7 hPa | 0 mm | - | - | - |
| 1777402115 | 21.11° C | 48% | 1019.8 hPa | 0 mm | - | - | - |
| 1777401815 | 21.11° C | 48% | 1019.8 hPa | 0 mm | - | - | - |
| 1777401515 | 20.56° C | 48% | 1019.8 hPa | 0 mm | - | - | - |
| 1777401215 | 20.56° C | 48% | 1019.9 hPa | 0 mm | - | - | - |
| 1777400632 | 20.56° C | 48% | 1019.9 hPa | 0 mm | - | - | - |
| 1777400332 | 20.56° C | 47% | 1020 hPa | 0 mm | - | - | - |
| 1777400032 | 20.56° C | 50% | 1020 hPa | 0 mm | - | - | - |
| 1777399732 | 20° C | 50% | 1020 hPa | 0 mm | - | - | - |
| 1777399432 | 20° C | 49% | 1020 hPa | 0 mm | - | - | - |
| 1777398895 | 20° C | 50% | 1019.9 hPa | 0 mm | - | - | - |
| 1777398595 | 20° C | 52% | 1020 hPa | 0 mm | - | - | - |
* Rain latest hour (hover to see other rain measurements)
** Current wind speed in m/s (hover to see current wind gust speed)